Terminal Aerodrome Forecast
Issued by NWS

Home | Current Version | Previous Version | Text Only | Print | Product List | Glossary Off
Versions: 1 2 3 4 5 6 7 8 9 10 11 12 13 14 15 16

425
FTUS41 KCLE 160529
TAFFDY
TAF
KFDY 160529Z 1606/1706 00000KT P6SM FEW250
     FM161000 VRB03KT 3SM BR SCT050
     FM161400 09005KT P6SM SCT040
     FM170000 10006KT P6SM BKN200=

USA.gov is the U.S. government's official web portal to all federal, state and local government web resources and services.